Hauptseite
METAR-TAF:

METAR-TAF

Flughäfen :

Aigen im Ennstal, Österreich

Breite: 47-32N, Länge: 014-08E, Höhe: 638 m

METAR: fehlend

Zeit: 15:54 (14:54 UTC)

Prognose

Neuester Wetterbericht von vor 3 Stunden und 39 Minuten, um 11:15 UTC
Gültige Prognose vom 24 um 12 UTC bis 24 um 21 UTC
Wind 3 kt aus unterschiedlichen Richtungen
Sichtweite 10 km oder mehr
Himmel klar
Wahrscheinlichkeit 30% :
Zeitweise
vom 24 um 19 UTC bis 24 um 21 UTC
Sichtweite: 0700 m

TAF: LOXA 241115Z 2412/2421 VRB03KT 9999 SKC PROB30 TEMPO 2419/2421 0700 FZBCFG

Wetterbeobachtungen und Prognosen von mehr als 4000 Flughäfen (METAR und TAF Bericht).

Die verfügbaren Stationen werden durch gelbe und rote Markierungen auf der Karte dargestellt.

Führen Sie die Maus auf sie, um den Namen der Station zu sehen.

Darauf klicken, um die Beobachtung von Wetterbeobachtungen und Prognosen zu sehen.

Um die Karte zu ändern : klicken Sie auf den grünen Tasten mit einem schwarzen Kreuz Zum Vergrößern, auf den grünen Button mit einem Gedankenstrich zu verkleinern, oder auf die grünen Pfeile für benachbarte Karten.


METAR-TAF: